sensor_id;sensor_type;location;lat;lon;timestamp;pressure;altitude;pressure_sealevel;temperature;humidity
58534;BME280;44109;52.398;7.024;2023-04-21T00:01:03;101351.06;;;10.93;100.00
58534;BME280;44109;52.398;7.024;2023-04-21T00:06:03;101341.31;;;10.84;100.00
58534;BME280;44109;52.398;7.024;2023-04-21T00:08:32;101350.25;;;10.93;100.00
58534;BME280;44109;52.398;7.024;2023-04-21T00:11:03;101331.34;;;10.99;100.00
58534;BME280;44109;52.398;7.024;2023-04-21T00:13:30;101329.94;;;11.05;100.00
58534;BME280;44109;52.398;7.024;2023-04-21T00:15:58;101326.69;;;11.03;100.00
58534;BME280;44109;52.398;7.024;2023-04-21T00:18:26;101328.84;;;10.93;100.00
58534;BME280;44109;52.398;7.024;2023-04-21T00:20:54;101322.41;;;10.89;100.00
58534;BME280;44109;52.398;7.024;2023-04-21T00:23:24;101320.28;;;10.67;100.00
58534;BME280;44109;52.398;7.024;2023-04-21T00:25:52;101309.81;;;10.60;100.00
58534;BME280;44109;52.398;7.024;2023-04-21T00:28:21;101317.06;;;10.65;100.00
58534;BME280;44109;52.398;7.024;2023-04-21T00:30:48;101303.19;;;10.49;100.00
58534;BME280;44109;52.398;7.024;2023-04-21T00:33:16;101296.31;;;10.59;100.00
58534;BME280;44109;52.398;7.024;2023-04-21T00:35:44;101287.34;;;10.50;100.00
58534;BME280;44109;52.398;7.024;2023-04-21T00:38:12;101294.13;;;10.52;100.00
58534;BME280;44109;52.398;7.024;2023-04-21T00:40:41;101278.25;;;10.49;100.00
58534;BME280;44109;52.398;7.024;2023-04-21T00:43:08;101289.13;;;10.42;100.00
58534;BME280;44109;52.398;7.024;2023-04-21T00:45:36;101286.47;;;10.46;100.00
58534;BME280;44109;52.398;7.024;2023-04-21T00:48:04;101294.78;;;10.46;100.00
58534;BME280;44109;52.398;7.024;2023-04-21T00:50:32;101294.41;;;10.31;100.00
58534;BME280;44109;52.398;7.024;2023-04-21T00:53:00;101288.59;;;10.36;100.00
58534;BME280;44109;52.398;7.024;2023-04-21T00:55:28;101287.16;;;10.43;100.00
58534;BME280;44109;52.398;7.024;2023-04-21T00:57:57;101275.88;;;10.35;100.00
58534;BME280;44109;52.398;7.024;2023-04-21T01:00:26;101281.78;;;10.34;100.00
58534;BME280;44109;52.398;7.024;2023-04-21T01:02:54;101284.56;;;10.34;100.00
58534;BME280;44109;52.398;7.024;2023-04-21T01:05:22;101277.56;;;10.24;100.00
58534;BME280;44109;52.398;7.024;2023-04-21T01:07:50;101274.81;;;10.40;100.00
58534;BME280;44109;52.398;7.024;2023-04-21T01:10:18;101281.97;;;10.41;100.00
58534;BME280;44109;52.398;7.024;2023-04-21T01:12:46;101281.34;;;10.32;100.00
58534;BME280;44109;52.398;7.024;2023-04-21T01:15:16;101282.41;;;10.27;100.00
58534;BME280;44109;52.398;7.024;2023-04-21T01:17:44;101286.53;;;10.33;100.00
58534;BME280;44109;52.398;7.024;2023-04-21T01:20:13;101269.53;;;10.35;100.00
58534;BME280;44109;52.398;7.024;2023-04-21T01:22:43;101272.38;;;10.23;100.00
58534;BME280;44109;52.398;7.024;2023-04-21T01:25:11;101274.41;;;10.10;100.00
58534;BME280;44109;52.398;7.024;2023-04-21T01:27:40;101275.56;;;10.09;100.00
58534;BME280;44109;52.398;7.024;2023-04-21T01:30:08;101275.91;;;10.07;100.00
58534;BME280;44109;52.398;7.024;2023-04-21T01:32:36;101274.13;;;9.99;100.00
58534;BME280;44109;52.398;7.024;2023-04-21T01:35:04;101268.38;;;10.08;100.00
58534;BME280;44109;52.398;7.024;2023-04-21T01:37:33;101263.69;;;10.08;100.00
58534;BME280;44109;52.398;7.024;2023-04-21T01:40:04;101271.78;;;10.01;100.00
58534;BME280;44109;52.398;7.024;2023-04-21T01:42:36;101256.97;;;10.09;100.00
58534;BME280;44109;52.398;7.024;2023-04-21T01:45:08;101272.00;;;9.80;100.00
58534;BME280;44109;52.398;7.024;2023-04-21T01:47:36;101262.81;;;9.92;100.00
58534;BME280;44109;52.398;7.024;2023-04-21T01:50:04;101263.38;;;9.98;100.00
58534;BME280;44109;52.398;7.024;2023-04-21T01:52:32;101262.94;;;9.96;100.00
58534;BME280;44109;52.398;7.024;2023-04-21T01:55:02;101259.28;;;10.07;100.00
58534;BME280;44109;52.398;7.024;2023-04-21T01:57:29;101258.38;;;10.03;100.00
58534;BME280;44109;52.398;7.024;2023-04-21T01:59:57;101259.91;;;10.01;100.00
58534;BME280;44109;52.398;7.024;2023-04-21T02:02:25;101264.53;;;9.97;100.00
58534;BME280;44109;52.398;7.024;2023-04-21T02:04:52;101248.59;;;9.94;100.00
58534;BME280;44109;52.398;7.024;2023-04-21T02:07:20;101255.53;;;10.00;100.00
58534;BME280;44109;52.398;7.024;2023-04-21T02:09:47;101256.47;;;9.91;100.00
58534;BME280;44109;52.398;7.024;2023-04-21T02:12:16;101261.13;;;9.87;100.00
58534;BME280;44109;52.398;7.024;2023-04-21T02:14:44;101260.97;;;9.96;100.00
58534;BME280;44109;52.398;7.024;2023-04-21T02:17:13;101260.91;;;10.08;100.00
58534;BME280;44109;52.398;7.024;2023-04-21T02:19:41;101250.63;;;10.09;100.00
58534;BME280;44109;52.398;7.024;2023-04-21T02:22:09;101273.16;;;10.23;100.00
58534;BME280;44109;52.398;7.024;2023-04-21T02:24:38;101234.75;;;9.94;100.00
58534;BME280;44109;52.398;7.024;2023-04-21T02:27:06;101287.81;;;10.36;100.00
58534;BME280;44109;52.398;7.024;2023-04-21T02:29:35;101285.09;;;10.39;100.00
58534;BME280;44109;52.398;7.024;2023-04-21T02:32:03;101270.88;;;10.41;100.00
58534;BME280;44109;52.398;7.024;2023-04-21T02:34:31;101264.06;;;10.38;100.00
58534;BME280;44109;52.398;7.024;2023-04-21T02:36:58;101276.88;;;10.43;100.00
58534;BME280;44109;52.398;7.024;2023-04-21T02:39:26;101283.41;;;10.51;100.00
58534;BME280;44109;52.398;7.024;2023-04-21T02:41:53;101281.97;;;10.57;100.00
58534;BME280;44109;52.398;7.024;2023-04-21T02:44:21;101286.28;;;10.54;100.00
58534;BME280;44109;52.398;7.024;2023-04-21T02:46:50;101288.97;;;10.51;100.00
58534;BME280;44109;52.398;7.024;2023-04-21T02:49:18;101297.22;;;10.63;100.00
58534;BME280;44109;52.398;7.024;2023-04-21T02:51:45;101290.81;;;10.62;100.00
58534;BME280;44109;52.398;7.024;2023-04-21T02:54:13;101287.44;;;10.53;100.00
58534;BME280;44109;52.398;7.024;2023-04-21T02:56:41;101291.19;;;10.61;100.00
58534;BME280;44109;52.398;7.024;2023-04-21T02:59:08;101289.13;;;10.58;100.00
58534;BME280;44109;52.398;7.024;2023-04-21T03:01:36;101292.25;;;10.56;100.00
58534;BME280;44109;52.398;7.024;2023-04-21T03:04:05;101293.53;;;10.59;100.00
58534;BME280;44109;52.398;7.024;2023-04-21T03:06:33;101296.19;;;10.39;100.00
58534;BME280;44109;52.398;7.024;2023-04-21T03:09:01;101301.13;;;10.46;100.00
58534;BME280;44109;52.398;7.024;2023-04-21T03:11:29;101294.94;;;10.37;100.00
58534;BME280;44109;52.398;7.024;2023-04-21T03:13:56;101305.59;;;10.51;100.00
58534;BME280;44109;52.398;7.024;2023-04-21T03:16:24;101300.97;;;10.55;100.00
58534;BME280;44109;52.398;7.024;2023-04-21T03:18:52;101309.44;;;10.62;100.00
58534;BME280;44109;52.398;7.024;2023-04-21T03:21:21;101304.38;;;10.64;100.00
58534;BME280;44109;52.398;7.024;2023-04-21T03:23:49;101301.03;;;10.74;100.00
58534;BME280;44109;52.398;7.024;2023-04-21T03:26:18;101299.63;;;10.64;100.00
58534;BME280;44109;52.398;7.024;2023-04-21T03:28:46;101300.97;;;10.55;100.00
58534;BME280;44109;52.398;7.024;2023-04-21T03:31:14;101298.72;;;10.45;100.00
58534;BME280;44109;52.398;7.024;2023-04-21T03:33:42;101299.44;;;10.41;100.00
58534;BME280;44109;52.398;7.024;2023-04-21T03:36:09;101301.50;;;10.45;100.00
58534;BME280;44109;52.398;7.024;2023-04-21T03:38:38;101303.53;;;10.32;100.00
58534;BME280;44109;52.398;7.024;2023-04-21T03:41:06;101302.63;;;10.44;100.00
58534;BME280;44109;52.398;7.024;2023-04-21T03:43:33;101306.78;;;10.50;100.00
58534;BME280;44109;52.398;7.024;2023-04-21T03:46:01;101304.91;;;10.54;100.00
58534;BME280;44109;52.398;7.024;2023-04-21T03:48:29;101309.81;;;10.45;100.00
58534;BME280;44109;52.398;7.024;2023-04-21T03:50:57;101307.75;;;10.41;100.00
58534;BME280;44109;52.398;7.024;2023-04-21T03:53:24;101314.47;;;10.40;100.00
58534;BME280;44109;52.398;7.024;2023-04-21T03:55:53;101294.34;;;10.15;100.00
58534;BME280;44109;52.398;7.024;2023-04-21T03:58:21;101313.56;;;10.36;100.00
58534;BME280;44109;52.398;7.024;2023-04-21T04:00:48;101292.72;;;10.27;100.00
58534;BME280;44109;52.398;7.024;2023-04-21T04:03:16;101310.06;;;10.39;100.00
58534;BME280;44109;52.398;7.024;2023-04-21T04:05:43;101304.00;;;10.22;100.00
58534;BME280;44109;52.398;7.024;2023-04-21T04:08:11;101296.34;;;10.31;100.00
58534;BME280;44109;52.398;7.024;2023-04-21T04:10:39;101304.13;;;10.25;100.00
58534;BME280;44109;52.398;7.024;2023-04-21T04:13:08;101311.22;;;10.38;100.00
58534;BME280;44109;52.398;7.024;2023-04-21T04:15:35;101308.97;;;10.28;100.00
58534;BME280;44109;52.398;7.024;2023-04-21T04:18:03;101298.13;;;10.23;100.00
58534;BME280;44109;52.398;7.024;2023-04-21T04:20:31;101300.25;;;10.14;100.00
58534;BME280;44109;52.398;7.024;2023-04-21T04:22:58;101292.84;;;10.18;100.00
58534;BME280;44109;52.398;7.024;2023-04-21T04:25:27;101289.25;;;10.18;100.00
58534;BME280;44109;52.398;7.024;2023-04-21T04:27:55;101287.38;;;10.22;100.00
58534;BME280;44109;52.398;7.024;2023-04-21T04:30:24;101297.00;;;10.12;100.00
58534;BME280;44109;52.398;7.024;2023-04-21T04:32:53;101290.22;;;10.09;100.00
58534;BME280;44109;52.398;7.024;2023-04-21T04:35:23;101294.06;;;10.21;100.00
58534;BME280;44109;52.398;7.024;2023-04-21T04:37:50;101300.91;;;10.23;100.00
58534;BME280;44109;52.398;7.024;2023-04-21T04:40:19;101289.81;;;10.23;100.00
58534;BME280;44109;52.398;7.024;2023-04-21T04:42:47;101297.19;;;10.31;100.00
58534;BME280;44109;52.398;7.024;2023-04-21T04:45:16;101293.88;;;10.41;100.00
58534;BME280;44109;52.398;7.024;2023-04-21T04:47:48;101288.50;;;10.33;100.00
58534;BME280;44109;52.398;7.024;2023-04-21T04:50:15;101295.75;;;10.37;100.00
58534;BME280;44109;52.398;7.024;2023-04-21T04:52:43;101289.75;;;10.35;100.00
58534;BME280;44109;52.398;7.024;2023-04-21T04:55:12;101292.00;;;10.46;100.00
58534;BME280;44109;52.398;7.024;2023-04-21T04:57:40;101285.22;;;10.59;100.00
58534;BME280;44109;52.398;7.024;2023-04-21T05:00:08;101282.78;;;10.57;100.00
58534;BME280;44109;52.398;7.024;2023-04-21T05:02:38;101277.78;;;10.63;100.00
58534;BME280;44109;52.398;7.024;2023-04-21T05:05:07;101284.66;;;10.69;100.00
58534;BME280;44109;52.398;7.024;2023-04-21T05:07:35;101282.31;;;10.71;100.00
58534;BME280;44109;52.398;7.024;2023-04-21T05:10:03;101288.41;;;10.92;100.00
58534;BME280;44109;52.398;7.024;2023-04-21T05:12:31;101278.09;;;10.93;100.00
58534;BME280;44109;52.398;7.024;2023-04-21T05:14:59;101292.84;;;11.13;100.00
58534;BME280;44109;52.398;7.024;2023-04-21T05:17:26;101297.84;;;11.23;100.00
58534;BME280;44109;52.398;7.024;2023-04-21T05:19:56;101297.38;;;11.21;100.00
58534;BME280;44109;52.398;7.024;2023-04-21T05:22:25;101300.16;;;11.21;100.00
58534;BME280;44109;52.398;7.024;2023-04-21T05:24:52;101299.34;;;11.21;100.00
58534;BME280;44109;52.398;7.024;2023-04-21T05:27:20;101298.47;;;11.16;100.00
58534;BME280;44109;52.398;7.024;2023-04-21T05:29:47;101306.59;;;11.25;100.00
58534;BME280;44109;52.398;7.024;2023-04-21T05:32:15;101291.13;;;11.24;100.00
58534;BME280;44109;52.398;7.024;2023-04-21T05:34:43;101299.31;;;11.36;100.00
58534;BME280;44109;52.398;7.024;2023-04-21T05:37:11;101305.78;;;11.60;100.00
58534;BME280;44109;52.398;7.024;2023-04-21T05:39:40;101315.09;;;11.67;100.00
58534;BME280;44109;52.398;7.024;2023-04-21T05:42:08;101314.75;;;11.88;100.00
58534;BME280;44109;52.398;7.024;2023-04-21T05:44:37;101319.44;;;12.04;100.00
58534;BME280;44109;52.398;7.024;2023-04-21T05:47:04;101321.00;;;12.24;100.00
58534;BME280;44109;52.398;7.024;2023-04-21T05:49:33;101315.53;;;12.51;100.00
58534;BME280;44109;52.398;7.024;2023-04-21T05:52:00;101322.84;;;12.59;100.00
58534;BME280;44109;52.398;7.024;2023-04-21T05:54:28;101321.19;;;12.58;100.00
58534;BME280;44109;52.398;7.024;2023-04-21T05:56:57;101317.31;;;12.85;100.00
58534;BME280;44109;52.398;7.024;2023-04-21T05:59:24;101316.09;;;13.09;100.00
58534;BME280;44109;52.398;7.024;2023-04-21T06:01:52;101317.22;;;13.05;100.00
58534;BME280;44109;52.398;7.024;2023-04-21T06:04:20;101306.84;;;12.79;100.00
58534;BME280;44109;52.398;7.024;2023-04-21T06:06:47;101301.31;;;12.56;100.00
58534;BME280;44109;52.398;7.024;2023-04-21T06:09:15;101309.41;;;12.41;100.00
58534;BME280;44109;52.398;7.024;2023-04-21T06:11:42;101309.66;;;12.33;100.00
58534;BME280;44109;52.398;7.024;2023-04-21T06:14:11;101303.47;;;12.43;100.00
58534;BME280;44109;52.398;7.024;2023-04-21T06:16:39;101307.81;;;12.40;100.00
58534;BME280;44109;52.398;7.024;2023-04-21T06:19:07;101305.81;;;12.41;100.00
58534;BME280;44109;52.398;7.024;2023-04-21T06:21:34;101318.53;;;12.88;100.00
58534;BME280;44109;52.398;7.024;2023-04-21T06:24:02;101310.19;;;13.37;100.00
58534;BME280;44109;52.398;7.024;2023-04-21T06:26:30;101310.38;;;13.52;100.00
58534;BME280;44109;52.398;7.024;2023-04-21T06:28:58;101313.06;;;13.75;100.00
58534;BME280;44109;52.398;7.024;2023-04-21T06:31:27;101304.19;;;13.99;100.00
58534;BME280;44109;52.398;7.024;2023-04-21T06:33:54;101304.72;;;14.12;100.00
58534;BME280;44109;52.398;7.024;2023-04-21T06:36:22;101312.56;;;14.36;100.00
58534;BME280;44109;52.398;7.024;2023-04-21T06:38:50;101284.81;;;14.51;100.00
58534;BME280;44109;52.398;7.024;2023-04-21T06:41:17;101309.13;;;14.94;95.88
58534;BME280;44109;52.398;7.024;2023-04-21T06:43:45;101306.94;;;15.21;96.29
58534;BME280;44109;52.398;7.024;2023-04-21T06:46:13;101312.50;;;15.18;95.30
58534;BME280;44109;52.398;7.024;2023-04-21T06:48:42;101300.72;;;15.57;96.36
58534;BME280;44109;52.398;7.024;2023-04-21T06:51:09;101302.50;;;15.93;89.21
58534;BME280;44109;52.398;7.024;2023-04-21T06:53:37;101299.06;;;16.54;91.17
58534;BME280;44109;52.398;7.024;2023-04-21T06:56:05;101300.28;;;16.74;85.43
58534;BME280;44109;52.398;7.024;2023-04-21T06:58:33;101301.09;;;16.99;87.40
58534;BME280;44109;52.398;7.024;2023-04-21T07:01:00;101306.25;;;16.55;78.86
58534;BME280;44109;52.398;7.024;2023-04-21T07:03:28;101280.28;;;16.72;79.13
58534;BME280;44109;52.398;7.024;2023-04-21T07:05:57;101297.03;;;17.25;78.44
58534;BME280;44109;52.398;7.024;2023-04-21T07:08:25;101296.59;;;17.34;74.98
58534;BME280;44109;52.398;7.024;2023-04-21T07:10:52;101295.41;;;17.35;74.56
58534;BME280;44109;52.398;7.024;2023-04-21T07:13:20;101296.25;;;17.07;71.66
58534;BME280;44109;52.398;7.024;2023-04-21T07:15:48;101292.28;;;16.83;74.58
58534;BME280;44109;52.398;7.024;2023-04-21T07:18:16;101282.66;;;16.91;74.62
58534;BME280;44109;52.398;7.024;2023-04-21T07:20:43;101274.25;;;16.91;74.17
58534;BME280;44109;52.398;7.024;2023-04-21T07:23:12;101288.19;;;17.38;72.24
58534;BME280;44109;52.398;7.024;2023-04-21T07:25:40;101289.06;;;17.13;71.34
58534;BME280;44109;52.398;7.024;2023-04-21T07:28:08;101283.47;;;16.92;73.87
58534;BME280;44109;52.398;7.024;2023-04-21T07:30:36;101277.00;;;17.16;72.38
58534;BME280;44109;52.398;7.024;2023-04-21T07:33:03;101279.41;;;17.32;72.03
58534;BME280;44109;52.398;7.024;2023-04-21T07:35:31;101272.66;;;16.87;73.86
58534;BME280;44109;52.398;7.024;2023-04-21T07:37:59;101271.03;;;16.57;73.89
58534;BME280;44109;52.398;7.024;2023-04-21T07:40:27;101268.25;;;16.68;73.10
58534;BME280;44109;52.398;7.024;2023-04-21T07:42:56;101269.81;;;16.62;76.28
58534;BME280;44109;52.398;7.024;2023-04-21T07:45:24;101267.44;;;17.07;76.36
58534;BME280;44109;52.398;7.024;2023-04-21T07:47:52;101279.28;;;17.64;76.94
58534;BME280;44109;52.398;7.024;2023-04-21T07:50:20;101263.78;;;18.22;74.51
58534;BME280;44109;52.398;7.024;2023-04-21T07:52:47;101251.94;;;18.97;76.50
58534;BME280;44109;52.398;7.024;2023-04-21T07:55:15;101256.94;;;19.55;70.71
58534;BME280;44109;52.398;7.024;2023-04-21T07:57:44;101257.69;;;19.59;63.72
58534;BME280;44109;52.398;7.024;2023-04-21T08:00:13;101250.91;;;19.87;63.98
58534;BME280;44109;52.398;7.024;2023-04-21T08:02:42;101268.16;;;20.19;61.97
58534;BME280;44109;52.398;7.024;2023-04-21T08:05:09;101266.28;;;19.82;59.93
58534;BME280;44109;52.398;7.024;2023-04-21T08:07:37;101251.09;;;20.03;59.82
58534;BME280;44109;52.398;7.024;2023-04-21T08:10:07;101263.03;;;19.12;58.97
58534;BME280;44109;52.398;7.024;2023-04-21T08:12:35;101255.06;;;19.07;60.92
58534;BME280;44109;52.398;7.024;2023-04-21T08:15:05;101250.50;;;19.20;60.26
58534;BME280;44109;52.398;7.024;2023-04-21T08:17:33;101264.13;;;18.80;62.56
58534;BME280;44109;52.398;7.024;2023-04-21T08:20:01;101261.00;;;18.71;61.96
58534;BME280;44109;52.398;7.024;2023-04-21T08:22:29;101256.09;;;18.30;64.60
58534;BME280;44109;52.398;7.024;2023-04-21T08:24:57;101250.19;;;18.17;65.90
58534;BME280;44109;52.398;7.024;2023-04-21T08:27:24;101267.63;;;18.46;68.45
58534;BME280;44109;52.398;7.024;2023-04-21T08:29:52;101261.88;;;18.61;67.69
58534;BME280;44109;52.398;7.024;2023-04-21T08:32:21;101258.53;;;18.80;65.46
58534;BME280;44109;52.398;7.024;2023-04-21T08:34:49;101258.53;;;18.80;64.42
58534;BME280;44109;52.398;7.024;2023-04-21T08:37:17;101218.81;;;18.26;63.87
58534;BME280;44109;52.398;7.024;2023-04-21T08:39:45;101264.19;;;18.77;64.28
58534;BME280;44109;52.398;7.024;2023-04-21T08:42:16;101259.13;;;17.94;63.98
58534;BME280;44109;52.398;7.024;2023-04-21T08:44:44;101277.41;;;18.20;65.61
58534;BME280;44109;52.398;7.024;2023-04-21T08:47:14;101276.78;;;18.54;66.12
58534;BME280;44109;52.398;7.024;2023-04-21T08:49:43;101271.06;;;18.72;65.57
58534;BME280;44109;52.398;7.024;2023-04-21T08:52:11;101261.22;;;18.94;65.95
58534;BME280;44109;52.398;7.024;2023-04-21T08:54:39;101263.31;;;18.83;64.03
58534;BME280;44109;52.398;7.024;2023-04-21T08:57:07;101256.88;;;19.24;63.65
58534;BME280;44109;52.398;7.024;2023-04-21T08:59:35;101257.06;;;19.44;60.73
58534;BME280;44109;52.398;7.024;2023-04-21T09:02:09;101256.19;;;19.50;61.42
58534;BME280;44109;52.398;7.024;2023-04-21T09:04:38;101261.34;;;19.56;60.08
58534;BME280;44109;52.398;7.024;2023-04-21T09:07:08;101252.06;;;19.59;62.41
58534;BME280;44109;52.398;7.024;2023-04-21T09:09:52;101249.13;;;19.69;60.23
58534;BME280;44109;52.398;7.024;2023-04-21T09:12:21;101247.63;;;19.61;59.37
58534;BME280;44109;52.398;7.024;2023-04-21T09:14:49;101260.22;;;20.11;60.15
58534;BME280;44109;52.398;7.024;2023-04-21T09:17:17;101266.44;;;20.25;60.57
58534;BME280;44109;52.398;7.024;2023-04-21T09:19:54;101260.09;;;20.21;55.72
58534;BME280;44109;52.398;7.024;2023-04-21T09:22:25;101257.59;;;20.54;57.87
58534;BME280;44109;52.398;7.024;2023-04-21T09:24:56;101257.66;;;20.74;56.75
58534;BME280;44109;52.398;7.024;2023-04-21T09:27:25;101252.44;;;20.49;55.21
58534;BME280;44109;52.398;7.024;2023-04-21T09:29:54;101240.50;;;20.38;54.99
58534;BME280;44109;52.398;7.024;2023-04-21T09:32:29;101258.56;;;20.17;55.29
58534;BME280;44109;52.398;7.024;2023-04-21T09:35:02;101267.09;;;20.10;56.44
58534;BME280;44109;52.398;7.024;2023-04-21T09:37:32;101257.88;;;19.79;56.98
58534;BME280;44109;52.398;7.024;2023-04-21T09:40:00;101251.94;;;19.69;57.51
58534;BME280;44109;52.398;7.024;2023-04-21T09:42:29;101249.25;;;19.59;58.60
58534;BME280;44109;52.398;7.024;2023-04-21T09:44:58;101250.22;;;19.79;58.97
58534;BME280;44109;52.398;7.024;2023-04-21T09:47:28;101249.06;;;19.76;57.67
58534;BME280;44109;52.398;7.024;2023-04-21T09:49:57;101242.47;;;19.87;57.42
58534;BME280;44109;52.398;7.024;2023-04-21T09:52:27;101250.09;;;20.17;55.64
58534;BME280;44109;52.398;7.024;2023-04-21T09:55:00;101244.13;;;20.11;56.80
58534;BME280;44109;52.398;7.024;2023-04-21T09:57:30;101244.38;;;19.93;57.38
58534;BME280;44109;52.398;7.024;2023-04-21T10:00:02;101242.53;;;20.10;57.15
58534;BME280;44109;52.398;7.024;2023-04-21T10:02:34;101242.75;;;19.96;57.42
58534;BME280;44109;52.398;7.024;2023-04-21T10:05:06;101232.47;;;20.13;55.77
58534;BME280;44109;52.398;7.024;2023-04-21T10:07:36;101235.84;;;19.70;57.39
58534;BME280;44109;52.398;7.024;2023-04-21T10:10:10;101226.00;;;19.85;58.13
58534;BME280;44109;52.398;7.024;2023-04-21T10:12:43;101234.91;;;19.80;57.30
58534;BME280;44109;52.398;7.024;2023-04-21T10:15:29;101231.41;;;20.03;58.02
58534;BME280;44109;52.398;7.024;2023-04-21T10:20:52;101222.97;;;19.72;56.16
58534;BME280;44109;52.398;7.024;2023-04-21T10:23:26;101233.72;;;19.81;56.93
58534;BME280;44109;52.398;7.024;2023-04-21T10:26:05;101236.09;;;19.83;55.76
58534;BME280;44109;52.398;7.024;2023-04-21T10:28:46;101236.31;;;19.95;58.86
58534;BME280;44109;52.398;7.024;2023-04-21T10:31:20;101222.75;;;20.41;55.06
58534;BME280;44109;52.398;7.024;2023-04-21T10:34:14;101213.78;;;20.73;56.23
58534;BME280;44109;52.398;7.024;2023-04-21T10:37:08;101208.16;;;20.93;54.21
58534;BME280;44109;52.398;7.024;2023-04-21T10:39:54;101198.97;;;21.32;54.40
58534;BME280;44109;52.398;7.024;2023-04-21T10:42:25;101196.53;;;21.11;53.02
58534;BME280;44109;52.398;7.024;2023-04-21T10:45:05;101184.53;;;21.07;53.40
58534;BME280;44109;52.398;7.024;2023-04-21T10:47:46;101189.09;;;21.20;53.27
58534;BME280;44109;52.398;7.024;2023-04-21T10:50:21;101181.94;;;21.56;53.80
58534;BME280;44109;52.398;7.024;2023-04-21T10:52:53;101181.59;;;21.34;52.14
58534;BME280;44109;52.398;7.024;2023-04-21T10:55:25;101199.88;;;21.06;51.78
58534;BME280;44109;52.398;7.024;2023-04-21T10:57:56;101185.59;;;20.93;52.71
58534;BME280;44109;52.398;7.024;2023-04-21T11:00:24;101184.81;;;20.92;51.32
58534;BME280;44109;52.398;7.024;2023-04-21T11:02:54;101185.69;;;20.66;51.31
58534;BME280;44109;52.398;7.024;2023-04-21T11:05:30;101176.56;;;20.82;52.49
58534;BME280;44109;52.398;7.024;2023-04-21T11:08:09;101167.03;;;20.95;52.34
58534;BME280;44109;52.398;7.024;2023-04-21T11:10:53;101176.88;;;21.27;52.92
58534;BME280;44109;52.398;7.024;2023-04-21T11:13:25;101169.44;;;21.73;53.36
58534;BME280;44109;52.398;7.024;2023-04-21T11:16:02;101172.22;;;21.93;51.51
58534;BME280;44109;52.398;7.024;2023-04-21T11:18:42;101165.56;;;21.67;50.03
58534;BME280;44109;52.398;7.024;2023-04-21T11:21:14;101171.75;;;21.78;50.36
58534;BME280;44109;52.398;7.024;2023-04-21T11:23:49;101158.53;;;21.91;48.73
58534;BME280;44109;52.398;7.024;2023-04-21T11:26:29;101159.22;;;21.63;50.16
58534;BME280;44109;52.398;7.024;2023-04-21T11:29:03;101139.50;;;21.59;48.94
58534;BME280;44109;52.398;7.024;2023-04-21T11:31:32;101150.22;;;21.68;49.79
58534;BME280;44109;52.398;7.024;2023-04-21T11:34:02;101138.91;;;21.68;49.72
58534;BME280;44109;52.398;7.024;2023-04-21T11:36:32;101125.50;;;21.88;51.44
58534;BME280;44109;52.398;7.024;2023-04-21T11:39:03;101117.56;;;21.83;50.99
58534;BME280;44109;52.398;7.024;2023-04-21T11:41:33;101115.81;;;21.89;51.58
58534;BME280;44109;52.398;7.024;2023-04-21T11:44:02;101120.41;;;21.99;49.62
58534;BME280;44109;52.398;7.024;2023-04-21T11:46:30;101112.41;;;22.14;50.17
58534;BME280;44109;52.398;7.024;2023-04-21T11:48:59;101111.78;;;22.39;51.32
58534;BME280;44109;52.398;7.024;2023-04-21T11:51:32;101116.50;;;22.59;50.47
58534;BME280;44109;52.398;7.024;2023-04-21T11:54:02;101091.97;;;22.68;50.21
58534;BME280;44109;52.398;7.024;2023-04-21T11:56:34;101101.03;;;22.92;48.39
58534;BME280;44109;52.398;7.024;2023-04-21T11:59:07;101102.94;;;22.66;46.58
58534;BME280;44109;52.398;7.024;2023-04-21T12:01:41;101103.75;;;22.67;48.82
58534;BME280;44109;52.398;7.024;2023-04-21T12:04:13;101099.44;;;22.91;48.77
58534;BME280;44109;52.398;7.024;2023-04-21T12:06:42;101091.47;;;22.86;46.99
58534;BME280;44109;52.398;7.024;2023-04-21T12:09:16;101083.72;;;22.74;47.88
58534;BME280;44109;52.398;7.024;2023-04-21T12:11:46;101084.97;;;22.73;45.99
58534;BME280;44109;52.398;7.024;2023-04-21T12:14:18;101079.78;;;23.00;47.32
58534;BME280;44109;52.398;7.024;2023-04-21T12:16:47;101072.53;;;22.99;45.67
58534;BME280;44109;52.398;7.024;2023-04-21T12:19:34;101069.28;;;23.14;47.19
58534;BME280;44109;52.398;7.024;2023-04-21T12:22:06;101056.66;;;22.89;44.22
58534;BME280;44109;52.398;7.024;2023-04-21T12:24:34;101067.50;;;22.62;46.49
58534;BME280;44109;52.398;7.024;2023-04-21T12:27:03;101053.78;;;22.47;46.11
58534;BME280;44109;52.398;7.024;2023-04-21T12:29:33;101058.06;;;22.07;46.02
58534;BME280;44109;52.398;7.024;2023-04-21T12:32:02;101052.19;;;22.17;46.53
58534;BME280;44109;52.398;7.024;2023-04-21T12:34:30;101039.44;;;22.25;47.15
58534;BME280;44109;52.398;7.024;2023-04-21T12:36:58;101038.78;;;22.34;47.83
58534;BME280;44109;52.398;7.024;2023-04-21T12:39:26;101039.00;;;22.11;47.43
58534;BME280;44109;52.398;7.024;2023-04-21T12:41:54;101033.25;;;21.98;48.14
58534;BME280;44109;52.398;7.024;2023-04-21T12:44:22;101025.81;;;22.37;47.03
58534;BME280;44109;52.398;7.024;2023-04-21T12:46:52;101020.66;;;22.19;47.36
58534;BME280;44109;52.398;7.024;2023-04-21T12:49:20;101023.28;;;22.10;47.14
58534;BME280;44109;52.398;7.024;2023-04-21T12:51:48;100997.03;;;21.64;45.14
58534;BME280;44109;52.398;7.024;2023-04-21T12:54:16;101009.72;;;21.88;46.92
58534;BME280;44109;52.398;7.024;2023-04-21T12:56:44;101013.31;;;21.89;46.28
58534;BME280;44109;52.398;7.024;2023-04-21T12:59:11;101003.81;;;21.83;46.39
58534;BME280;44109;52.398;7.024;2023-04-21T13:01:39;101002.94;;;21.86;46.30